Time;durP1;ratioP1;P1;durP2;ratioP2;P2;SDS_P1;SDS_P2;PMS_P1;PMS_P2;Temp;Humidity;BMP_temperature;BMP_pressure;BME280_temperature;BME280_humidity;BME280_pressure;Samples;Min_cycle;Max_cycle;Signal;HPM_P1;HPM_P2
2021/01/09 00:00:09;;;;;;;8.63;2.88;;;2.00;1.00;;;;;;5056601;28;20607;-78
2021/01/09 00:03:08;;;;;;;3.50;3.08;;;2.00;1.00;;;;;;5056311;28;20607;-78
2021/01/09 00:05:38;;;;;;;6.47;3.05;;;2.00;1.00;;;;;;5036183;28;20153;-78
2021/01/09 00:08:08;;;;;;;4.38;2.63;;;2.00;1.00;;;;;;5051000;28;20535;-78
2021/01/09 00:14:08;;;;;;;7.30;2.38;;;1.90;1.00;;;;;;5036300;28;20187;-75
2021/01/09 00:16:48;;;;;;;5.60;2.35;;;1.90;1.00;;;;;;5043138;28;20172;-74
2021/01/09 00:19:14;;;;;;;3.65;2.45;;;1.90;1.00;;;;;;5056338;28;20187;-74
2021/01/09 00:21:40;;;;;;;5.30;2.38;;;1.90;1.00;;;;;;5056138;28;20156;-75
2021/01/09 00:24:07;;;;;;;4.97;2.97;;;1.90;1.00;;;;;;5039936;28;20185;-74
2021/01/09 00:26:34;;;;;;;3.88;2.50;;;1.80;1.00;;;;;;5036204;28;20159;-74
2021/01/09 00:29:08;;;;;;;4.28;2.83;;;1.80;1.00;;;;;;5036153;28;20646;-78
2021/01/09 00:32:08;;;;;;;5.03;2.45;;;1.90;1.00;;;;;;5035855;28;20168;-78
2021/01/09 00:35:08;;;;;;;6.20;2.40;;;1.90;1.00;;;;;;5036042;28;20169;-78
2021/01/09 00:38:08;;;;;;;3.67;2.30;;;1.90;1.00;;;;;;5048492;28;20168;-78
2021/01/09 00:41:08;;;;;;;4.10;2.33;;;1.90;1.00;;;;;;5035717;28;20160;-78
2021/01/09 00:44:08;;;;;;;7.95;3.25;;;1.90;1.00;;;;;;5036154;28;20175;-78
2021/01/09 00:46:35;;;;;;;3.50;2.42;;;1.90;1.00;;;;;;5035538;28;20168;-78
2021/01/09 00:49:08;;;;;;;2.50;2.10;;;2.00;1.00;;;;;;5049129;28;20176;-78
2021/01/09 00:55:08;;;;;;;3.50;2.55;;;1.90;1.00;;;;;;5035411;28;20200;-78
2021/01/09 01:00:51;;;;;;;10.20;2.42;;;2.00;1.00;;;;;;5037491;28;20180;-75
2021/01/09 01:03:20;;;;;;;4.70;2.30;;;2.10;1.00;;;;;;5035368;28;20222;-74
2021/01/09 01:05:46;;;;;;;4.45;2.28;;;;;;;;;;5035930;28;20611;-74
2021/01/09 01:08:14;;;;;;;5.18;2.72;;;2.10;1.00;;;;;;5055238;28;20168;-75
2021/01/09 01:10:40;;;;;;;3.88;2.85;;;2.10;1.00;;;;;;5053665;28;20183;-75
2021/01/09 01:13:08;;;;;;;4.30;2.60;;;2.20;1.00;;;;;;5055084;28;20164;-74
2021/01/09 01:19:38;;;;;;;5.22;2.33;;;2.20;1.00;;;;;;5054691;28;20215;-78
2021/01/09 01:22:38;;;;;;;5.40;2.75;;;2.20;1.00;;;;;;5035005;28;20163;-78
2021/01/09 01:25:38;;;;;;;15.18;2.40;;;2.30;1.00;;;;;;5035277;28;20252;-79
2021/01/09 01:28:20;;;;;;;4.63;2.75;;;2.40;1.00;;;;;;5035009;28;20164;-78
2021/01/09 01:30:48;;;;;;;3.08;1.95;;;2.40;1.00;;;;;;5051000;28;20180;-78
2021/01/09 01:33:14;;;;;;;5.78;3.15;;;2.40;1.00;;;;;;5054524;28;20251;-78
2021/01/09 01:35:40;;;;;;;6.10;2.70;;;2.50;1.00;;;;;;5041658;28;20295;-78
2021/01/09 01:38:06;;;;;;;5.53;3.23;;;2.60;1.00;;;;;;5041581;28;20205;-78
2021/01/09 01:40:32;;;;;;;3.77;3.00;;;2.60;1.00;;;;;;5050255;28;20180;-78
2021/01/09 01:43:38;;;;;;;6.07;2.83;;;2.60;1.00;;;;;;5034263;28;20234;-78
2021/01/09 01:46:26;;;;;;;5.18;3.03;;;2.70;1.00;;;;;;5052041;28;20304;-78
2021/01/09 01:49:08;;;;;;;2.75;2.42;;;2.70;1.00;;;;;;5054349;28;20639;-78
2021/01/09 01:52:08;;;;;;;4.80;2.55;;;2.70;1.00;;;;;;5051484;28;20174;-78
2021/01/09 01:54:33;;;;;;;3.33;2.00;;;2.70;1.00;;;;;;5034082;28;20192;-78
2021/01/09 01:57:11;;;;;;;4.63;2.27;;;2.70;1.00;;;;;;5034263;28;20242;-78
2021/01/09 01:59:42;;;;;;;2.85;2.35;;;2.70;1.00;;;;;;5034805;28;20215;-74
2021/01/09 02:02:14;;;;;;;4.22;2.30;;;2.80;1.00;;;;;;5034372;28;20627;-74
2021/01/09 02:05:08;;;;;;;2.17;1.70;;;2.80;1.00;;;;;;5033871;28;20172;-74
2021/01/09 02:08:08;;;;;;;2.85;1.65;;;2.80;1.00;;;;;;5034502;28;20164;-75
2021/01/09 02:10:34;;;;;;;4.40;1.85;;;;;;;;;;5036602;28;20663;-74
2021/01/09 02:13:19;;;;;;;3.42;2.05;;;2.80;1.00;;;;;;5041389;28;20311;-75
2021/01/09 02:15:57;;;;;;;3.50;2.10;;;2.80;1.00;;;;;;5034524;28;20160;-75
2021/01/09 02:18:25;;;;;;;7.88;2.45;;;2.70;1.00;;;;;;5034020;28;20187;-74
2021/01/09 02:20:58;;;;;;;4.78;2.40;;;2.70;1.00;;;;;;5033985;28;20165;-74
2021/01/09 02:23:27;;;;;;;2.40;1.92;;;2.70;1.00;;;;;;5052116;28;20182;-74
2021/01/09 02:25:53;;;;;;;4.75;2.03;;;2.60;1.00;;;;;;5033783;28;20247;-74
2021/01/09 02:28:19;;;;;;;2.30;2.00;;;2.60;1.00;;;;;;5034041;28;20287;-74
2021/01/09 02:31:26;;;;;;;2.33;2.10;;;2.60;1.00;;;;;;5044632;28;20422;-74
2021/01/09 02:33:57;;;;;;;2.90;2.20;;;2.50;1.00;;;;;;5053802;28;20238;-75
2021/01/09 02:36:44;;;;;;;2.10;1.90;;;2.50;1.00;;;;;;5051574;28;20623;-74
2021/01/09 02:39:14;;;;;;;5.78;2.65;;;2.50;1.00;;;;;;5046148;28;20254;-75
2021/01/09 02:41:52;;;;;;;2.30;2.10;;;2.50;1.00;;;;;;5033702;28;20169;-74
2021/01/09 02:44:38;;;;;;;4.85;2.50;;;2.50;1.00;;;;;;5034505;28;20179;-76
2021/01/09 02:47:38;;;;;;;6.97;2.50;;;2.50;1.00;;;;;;5035979;28;20168;-78
2021/01/09 02:50:12;;;;;;;7.03;3.40;;;2.50;1.00;;;;;;5033579;28;20231;-78
2021/01/09 02:53:08;;;;;;;3.67;2.83;;;2.50;1.00;;;;;;5033777;28;20180;-78
2021/01/09 02:56:08;;;;;;;3.50;2.05;;;2.50;1.00;;;;;;5033630;28;20192;-78
2021/01/09 02:59:08;;;;;;;2.08;1.85;;;2.50;1.00;;;;;;5033309;28;20296;-79
2021/01/09 03:01:39;;;;;;;2.63;1.90;;;2.50;1.00;;;;;;5034022;28;20263;-74
2021/01/09 03:04:04;;;;;;;4.43;2.00;;;2.50;1.00;;;;;;5037693;28;20168;-74
2021/01/09 03:06:32;;;;;;;2.13;1.77;;;2.50;1.00;;;;;;5037520;28;20167;-75
2021/01/09 03:08:59;;;;;;;2.08;1.85;;;2.50;1.00;;;;;;5037917;28;20176;-75
2021/01/09 03:11:26;;;;;;;7.90;1.80;;;2.50;1.00;;;;;;5037664;28;20160;-74
2021/01/09 03:13:57;;;;;;;2.65;2.30;;;;;;;;;;5037507;28;20205;-74
2021/01/09 03:16:22;;;;;;;3.58;2.58;;;2.40;1.00;;;;;;5037725;28;20168;-78
2021/01/09 03:22:38;;;;;;;5.93;3.17;;;2.40;1.00;;;;;;5042850;28;20186;-78
2021/01/09 03:25:38;;;;;;;7.15;2.47;;;2.40;1.00;;;;;;5057141;28;20162;-78
2021/01/09 03:28:20;;;;;;;2.25;2.05;;;2.40;1.00;;;;;;5057098;28;20251;-79
2021/01/09 03:30:46;;;;;;;3.42;2.35;;;;;;;;;;5057380;28;20170;-75
2021/01/09 03:33:20;;;;;;;3.13;2.20;;;2.40;1.00;;;;;;5056841;28;20187;-74
2021/01/09 03:35:46;;;;;;;5.43;2.33;;;2.40;1.00;;;;;;5056772;28;20167;-75
2021/01/09 03:38:21;;;;;;;3.37;2.50;;;2.30;1.00;;;;;;5042771;28;20243;-74
2021/01/09 03:40:46;;;;;;;5.53;2.28;;;2.40;1.00;;;;;;5036835;28;20395;-74
2021/01/09 03:43:14;;;;;;;4.30;1.90;;;2.40;1.00;;;;;;5039683;28;20662;-75
2021/01/09 03:45:44;;;;;;;5.40;2.80;;;2.30;1.00;;;;;;5057075;28;20493;-75
2021/01/09 03:48:20;;;;;;;2.53;2.05;;;2.30;1.00;;;;;;5056727;28;20645;-74
2021/01/09 03:50:51;;;;;;;3.17;2.42;;;2.40;1.00;;;;;;5056770;28;20657;-75
2021/01/09 03:53:32;;;;;;;3.20;2.33;;;2.40;1.00;;;;;;5040197;28;20196;-74
2021/01/09 03:56:03;;;;;;;3.80;2.45;;;2.40;1.00;;;;;;5036358;28;20669;-74
2021/01/09 03:58:29;;;;;;;2.63;1.90;;;2.40;1.00;;;;;;5047397;28;20207;-75
2021/01/09 04:01:38;;;;;;;4.73;2.90;;;2.40;1.00;;;;;;5056764;28;20168;-78
2021/01/09 04:04:38;;;;;;;2.90;2.08;;;2.30;1.00;;;;;;5042498;28;20251;-78
2021/01/09 04:07:38;;;;;;;2.80;1.70;;;2.30;1.00;;;;;;5036352;28;20658;-78
2021/01/09 04:10:08;;;;;;;2.55;2.05;;;2.40;1.00;;;;;;5036292;28;20222;-78
2021/01/09 04:13:08;;;;;;;3.00;2.25;;;2.40;1.00;;;;;;5035490;28;20883;-78
2021/01/09 04:15:44;;;;;;;2.85;2.10;;;2.40;1.00;;;;;;5036453;28;20171;-75
2021/01/09 04:22:08;;;;;;;3.63;1.70;;;2.30;1.00;;;;;;5037502;28;20183;-78
2021/01/09 04:25:08;;;;;;;2.72;1.90;;;2.20;1.00;;;;;;5036420;28;20218;-78
2021/01/09 04:28:08;;;;;;;5.28;2.75;;;2.30;1.00;;;;;;5036223;28;20187;-78
2021/01/09 04:30:34;;;;;;;2.10;1.23;;;2.20;1.00;;;;;;5036447;28;20160;-75
2021/01/09 04:33:26;;;;;;;3.60;2.57;;;2.20;1.00;;;;;;5036035;28;20179;-74
2021/01/09 04:35:52;;;;;;;4.25;2.58;;;2.30;1.00;;;;;;5035903;28;20157;-74
2021/01/09 04:38:17;;;;;;;2.30;1.77;;;2.30;1.00;;;;;;5048763;28;20256;-74
2021/01/09 04:40:44;;;;;;;3.93;2.27;;;2.20;1.00;;;;;;5055829;28;20165;-75
2021/01/09 04:43:21;;;;;;;2.08;1.85;;;2.20;1.00;;;;;;5055471;28;20156;-74
2021/01/09 04:45:47;;;;;;;2.55;1.55;;;2.20;1.00;;;;;;5056017;28;20163;-74
2021/01/09 04:48:13;;;;;;;2.90;1.60;;;2.20;1.00;;;;;;5054101;28;20178;-75
2021/01/09 04:50:51;;;;;;;4.50;2.22;;;2.20;1.00;;;;;;5055450;28;20866;-75
2021/01/09 04:53:22;;;;;;;7.85;1.90;;;2.20;1.00;;;;;;5055233;28;20274;-74
2021/01/09 04:55:48;;;;;;;3.00;2.42;;;2.20;1.00;;;;;;5049264;28;20184;-74
2021/01/09 04:58:14;;;;;;;3.20;2.10;;;2.20;1.00;;;;;;5035457;28;20797;-74
2021/01/09 05:00:47;;;;;;;4.22;1.80;;;2.30;1.00;;;;;;5036254;28;20517;-75
2021/01/09 05:03:32;;;;;;;6.53;2.65;;;2.20;1.00;;;;;;5035496;28;20171;-74
2021/01/09 05:05:58;;;;;;;2.55;2.15;;;2.30;1.00;;;;;;5035308;28;20160;-74
2021/01/09 05:08:39;;;;;;;6.83;2.17;;;2.30;1.00;;;;;;5035294;28;20177;-74
2021/01/09 05:11:05;;;;;;;2.75;2.00;;;2.30;1.00;;;;;;5035350;28;20160;-75
2021/01/09 05:13:32;;;;;;;1.65;1.55;;;2.30;1.00;;;;;;5048905;28;20680;-75
2021/01/09 05:16:03;;;;;;;4.22;2.15;;;2.30;1.00;;;;;;5055422;28;20163;-75
2021/01/09 05:18:31;;;;;;;4.40;2.35;;;2.30;1.00;;;;;;5054939;28;20184;-75
2021/01/09 05:21:12;;;;;;;4.25;2.50;;;2.30;1.00;;;;;;5054877;28;20185;-74
2021/01/09 05:23:52;;;;;;;3.20;2.45;;;2.30;1.00;;;;;;5054895;28;20156;-74
2021/01/09 05:26:22;;;;;;;4.80;1.90;;;2.30;1.00;;;;;;5054102;28;20254;-74
2021/01/09 05:28:59;;;;;;;2.10;1.95;;;2.40;1.00;;;;;;5054744;28;20163;-75
2021/01/09 05:31:27;;;;;;;4.38;1.90;;;2.40;1.00;;;;;;5045166;28;20270;-75
2021/01/09 05:33:57;;;;;;;5.72;2.50;;;2.40;1.00;;;;;;5034835;28;20223;-75
2021/01/09 05:36:27;;;;;;;3.25;2.42;;;2.30;1.00;;;;;;5039553;28;20245;-74
2021/01/09 05:38:56;;;;;;;2.28;1.70;;;2.30;1.00;;;;;;5052899;28;20546;-74
2021/01/09 05:41:33;;;;;;;2.85;2.10;;;2.30;1.00;;;;;;5054587;28;20188;-74
2021/01/09 05:44:07;;;;;;;5.50;2.15;;;2.40;1.00;;;;;;5054681;28;20217;-74
2021/01/09 05:46:41;;;;;;;2.63;1.77;;;2.40;1.00;;;;;;5035531;28;20187;-78
2021/01/09 05:49:09;;;;;;;6.70;2.85;;;2.30;1.00;;;;;;5034640;28;20524;-78
2021/01/09 05:51:39;;;;;;;3.75;2.35;;;2.30;1.00;;;;;;5034314;28;20152;-78
2021/01/09 05:54:38;;;;;;;1.55;1.35;;;2.30;1.00;;;;;;5034505;28;20896;-78
2021/01/09 05:57:41;;;;;;;2.58;1.63;;;2.40;1.00;;;;;;5034395;28;20543;-78
2021/01/09 06:00:11;;;;;;;4.57;2.30;;;2.30;1.00;;;;;;5043321;28;20225;-78
2021/01/09 06:03:03;;;;;;;2.05;1.75;;;2.30;1.00;;;;;;5054578;28;20762;-74
2021/01/09 06:05:50;;;;;;;1.50;1.40;;;2.30;1.00;;;;;;5052161;28;20175;-75
2021/01/09 06:08:27;;;;;;;2.40;1.95;;;2.30;1.00;;;;;;5053100;28;20733;-74
2021/01/09 06:10:58;;;;;;;2.05;1.70;;;2.30;1.00;;;;;;5053634;28;20205;-75
2021/01/09 06:13:30;;;;;;;1.30;1.20;;;2.30;1.00;;;;;;5045377;28;20268;-75
2021/01/09 06:16:03;;;;;;;6.75;1.35;;;2.30;1.00;;;;;;5037550;28;20172;-75
2021/01/09 06:18:29;;;;;;;4.10;2.05;;;;;;;;;;5054179;28;20191;-74
2021/01/09 06:21:10;;;;;;;2.45;2.03;;;2.30;1.00;;;;;;5052668;28;20242;-74
2021/01/09 06:23:45;;;;;;;1.63;1.30;;;2.30;1.00;;;;;;5033966;28;20727;-74
2021/01/09 06:26:15;;;;;;;3.75;1.90;;;2.30;1.00;;;;;;5033744;28;20167;-74
2021/01/09 06:28:51;;;;;;;2.70;1.35;;;2.20;1.00;;;;;;5034005;28;20738;-74
2021/01/09 06:31:22;;;;;;;2.50;1.60;;;2.20;1.00;;;;;;5034088;28;20765;-77
2021/01/09 06:33:50;;;;;;;5.13;2.38;;;2.20;1.00;;;;;;5033920;28;20164;-74
2021/01/09 06:36:18;;;;;;;3.30;1.92;;;2.20;1.00;;;;;;5037484;28;20202;-74
2021/01/09 06:38:49;;;;;;;1.85;1.75;;;2.10;1.00;;;;;;5053319;28;20210;-74
2021/01/09 06:41:32;;;;;;;2.45;2.08;;;2.00;1.00;;;;;;5033888;28;20152;-75
2021/01/09 06:44:07;;;;;;;6.00;2.50;;;2.00;1.00;;;;;;5033722;28;20588;-74
2021/01/09 06:46:39;;;;;;;3.55;2.20;;;1.90;1.00;;;;;;5041345;28;20249;-75
2021/01/09 06:49:25;;;;;;;1.35;1.25;;;1.90;1.00;;;;;;5051825;28;20168;-74
2021/01/09 06:51:52;;;;;;;3.92;1.90;;;1.90;1.00;;;;;;5049131;28;20267;-75
2021/01/09 06:54:25;;;;;;;3.72;1.88;;;1.80;1.00;;;;;;5033558;28;20153;-75
2021/01/09 06:57:14;;;;;;;2.97;2.70;;;1.80;1.00;;;;;;5040359;28;20586;-74
2021/01/09 06:59:51;;;;;;;2.85;2.28;;;1.80;1.00;;;;;;5034022;28;20204;-74
2021/01/09 07:02:22;;;;;;;5.40;2.97;;;1.80;1.00;;;;;;5034211;28;20211;-74
2021/01/09 07:05:28;;;;;;;3.95;2.13;;;1.80;1.00;;;;;;5034941;28;20167;-74
2021/01/09 07:07:58;;;;;;;2.63;1.95;;;1.80;1.00;;;;;;5033636;28;20250;-74
2021/01/09 07:10:28;;;;;;;3.63;1.70;;;1.80;1.00;;;;;;5033553;28;20544;-75
2021/01/09 07:13:03;;;;;;;4.30;2.97;;;1.90;1.00;;;;;;5033577;28;20489;-82
2021/01/09 07:15:45;;;;;;;3.25;2.13;;;1.90;1.00;;;;;;5037257;28;20575;-75
2021/01/09 07:18:27;;;;;;;5.55;2.17;;;2.00;1.00;;;;;;5038525;28;20214;-75
2021/01/09 07:20:55;;;;;;;4.88;2.95;;;2.00;1.00;;;;;;5033382;28;20686;-74
2021/01/09 07:23:21;;;;;;;6.28;2.83;;;2.00;1.00;;;;;;5033550;28;20663;-74
2021/01/09 07:26:09;;;;;;;2.88;2.10;;;2.00;1.00;;;;;;5033092;28;20165;-80
2021/01/09 07:29:08;;;;;;;3.15;1.80;;;2.00;1.00;;;;;;5035813;28;20173;-82
2021/01/09 07:31:56;;;;;;;3.13;2.15;;;2.10;1.00;;;;;;5033232;28;20184;-82
2021/01/09 07:34:23;;;;;;;5.07;2.72;;;2.00;1.00;;;;;;5037240;28;20180;-74
2021/01/09 07:37:08;;;;;;;5.50;2.60;;;2.10;1.00;;;;;;5051421;28;20168;-75
2021/01/09 07:39:54;;;;;;;3.08;2.08;;;2.10;1.00;;;;;;5033186;28;20197;-74
2021/01/09 07:42:39;;;;;;;4.53;2.35;;;2.20;1.00;;;;;;5033023;28;20178;-74
2021/01/09 07:45:17;;;;;;;4.47;2.65;;;2.30;1.00;;;;;;5033275;28;20157;-74
2021/01/09 07:47:48;;;;;;;5.30;3.00;;;2.30;1.00;;;;;;5033926;28;20518;-75
2021/01/09 07:50:17;;;;;;;5.38;3.28;;;2.30;1.00;;;;;;5036831;28;20172;-74
2021/01/09 07:53:09;;;;;;;9.63;3.28;;;2.30;1.00;;;;;;5041305;28;20203;-84
2021/01/09 07:55:45;;;;;;;7.20;2.60;;;2.30;1.00;;;;;;5044628;28;20207;-79
2021/01/09 07:58:42;;;;;;;4.65;3.00;;;2.40;1.00;;;;;;5036249;28;20188;-80
2021/01/09 08:01:47;;;;;;;3.17;2.45;;;2.40;1.00;;;;;;5038643;28;20207;-78
2021/01/09 08:04:13;;;;;;;2.10;1.90;;;2.40;1.00;;;;;;5036669;28;20258;-74
2021/01/09 08:06:39;;;;;;;5.40;2.77;;;2.40;1.00;;;;;;5036480;28;20256;-75
2021/01/09 08:09:09;;;;;;;8.93;3.47;;;2.40;1.00;;;;;;5036785;28;20195;-74
2021/01/09 08:11:53;;;;;;;7.50;3.30;;;;;;;;;;5052991;28;20172;-75
2021/01/09 08:14:38;;;;;;;4.20;2.53;;;2.40;1.00;;;;;;5035052;28;20169;-78
2021/01/09 08:17:18;;;;;;;4.95;1.90;;;2.40;1.00;;;;;;5038998;28;20207;-74
2021/01/09 08:20:38;;;;;;;4.05;2.38;;;2.30;1.00;;;;;;5036089;28;20220;-79
2021/01/09 08:23:09;;;;;;;5.13;2.53;;;2.10;1.00;;;;;;5035986;28;20153;-78
2021/01/09 08:25:39;;;;;;;2.95;1.98;;;2.10;1.00;;;;;;5036115;28;20498;-78
2021/01/09 08:28:09;;;;;;;4.65;2.28;;;2.00;1.00;;;;;;5035825;28;20160;-78
2021/01/09 08:30:39;;;;;;;2.95;2.40;;;2.00;1.00;;;;;;5035971;28;20219;-78
2021/01/09 08:33:15;;;;;;;2.40;1.60;;;2.00;1.00;;;;;;5036409;28;20180;-74
2021/01/09 08:35:45;;;;;;;2.63;2.13;;;2.00;1.00;;;;;;5040734;28;20164;-75
2021/01/09 08:38:11;;;;;;;2.55;1.92;;;2.10;1.00;;;;;;5053968;28;20286;-74
2021/01/09 08:40:39;;;;;;;3.53;2.00;;;2.10;1.00;;;;;;5055826;28;20167;-74
2021/01/09 08:43:09;;;;;;;3.60;2.30;;;2.20;1.00;;;;;;5053728;28;20168;-75
2021/01/09 08:45:38;;;;;;;3.25;1.52;;;2.30;1.00;;;;;;5055511;28;20180;-74
2021/01/09 08:48:19;;;;;;;10.15;2.50;;;2.30;1.00;;;;;;5055694;28;20160;-75
2021/01/09 08:51:24;;;;;;;2.63;1.73;;;2.30;1.00;;;;;;5055660;28;20177;-75
2021/01/09 08:54:03;;;;;;;3.92;1.75;;;2.30;1.00;;;;;;5030927;28;20215;-74
2021/01/09 08:56:31;;;;;;;1.80;1.45;;;2.30;1.00;;;;;;5033326;28;20289;-74
2021/01/09 08:59:09;;;;;;;5.10;3.13;;;2.40;1.00;;;;;;5016883;28;20749;-74
2021/01/09 09:01:48;;;;;;;3.15;2.05;;;2.50;1.00;;;;;;5029886;28;20279;-74
2021/01/09 09:04:17;;;;;;;3.75;2.85;;;2.50;1.00;;;;;;5032419;28;20524;-75
2021/01/09 09:06:44;;;;;;;4.55;2.92;;;2.50;1.00;;;;;;5032007;28;20184;-75
2021/01/09 09:09:17;;;;;;;4.00;2.05;;;2.50;1.00;;;;;;5031851;28;20187;-74
2021/01/09 09:11:49;;;;;;;5.50;2.20;;;2.60;1.00;;;;;;5026956;28;20579;-75
2021/01/09 09:14:16;;;;;;;4.40;2.67;;;2.50;1.00;;;;;;5020407;28;20195;-74
2021/01/09 09:16:43;;;;;;;4.20;2.70;;;2.60;1.00;;;;;;5015095;28;20184;-74
2021/01/09 09:19:16;;;;;;;6.43;2.83;;;2.60;1.00;;;;;;5032247;28;20655;-77
2021/01/09 09:21:55;;;;;;;5.78;3.38;;;2.60;1.00;;;;;;5031869;28;20729;-78
2021/01/09 09:24:29;;;;;;;3.92;2.30;;;2.60;1.00;;;;;;5029666;28;20255;-77
2021/01/09 09:26:55;;;;;;;4.68;3.00;;;2.70;1.00;;;;;;5031881;28;20188;-78
2021/01/09 09:29:31;;;;;;;6.40;3.17;;;2.60;1.00;;;;;;5052429;28;20171;-78
2021/01/09 09:31:56;;;;;;;3.85;2.72;;;2.70;1.00;;;;;;5054126;28;20560;-78
2021/01/09 09:34:27;;;;;;;7.57;3.40;;;2.80;1.00;;;;;;5041007;28;20184;-77
2021/01/09 09:36:52;;;;;;;5.38;3.35;;;2.90;1.00;;;;;;5034586;28;20590;-78
2021/01/09 09:39:22;;;;;;;4.70;2.97;;;3.00;1.00;;;;;;5052521;28;20302;-77
2021/01/09 09:41:58;;;;;;;6.25;3.90;;;3.10;1.00;;;;;;5039413;28;20212;-82
2021/01/09 09:44:33;;;;;;;4.53;3.10;;;3.00;1.00;;;;;;5052545;28;20631;-80
2021/01/09 09:46:59;;;;;;;5.40;3.35;;;3.10;1.00;;;;;;5051377;28;20697;-77
2021/01/09 09:49:25;;;;;;;5.38;3.03;;;3.10;1.00;;;;;;5048954;28;20181;-74
2021/01/09 09:51:51;;;;;;;3.73;2.63;;;;;;;;;;5045072;28;20189;-74
2021/01/09 09:54:30;;;;;;;4.07;2.90;;;3.20;1.00;;;;;;5050527;28;20180;-74
2021/01/09 09:56:57;;;;;;;4.78;2.63;;;;;;;;;;5049052;28;20242;-74
2021/01/09 09:59:28;;;;;;;4.75;3.00;;;3.40;1.00;;;;;;5047590;28;20214;-74
2021/01/09 10:02:01;;;;;;;9.40;3.38;;;3.40;1.00;;;;;;5044049;28;20168;-75
2021/01/09 10:04:28;;;;;;;5.85;3.65;;;3.50;1.00;;;;;;5050929;28;20168;-74
2021/01/09 10:06:54;;;;;;;4.85;3.40;;;;;;;;;;5053411;28;20186;-75
2021/01/09 10:09:21;;;;;;;8.43;3.40;;;3.60;1.00;;;;;;5050058;28;20172;-75
2021/01/09 10:11:49;;;;;;;7.78;3.95;;;3.80;1.00;;;;;;5052518;28;20172;-74
2021/01/09 10:14:15;;;;;;;8.68;3.95;;;;;;;;;;5052669;28;20241;-74
2021/01/09 10:16:41;;;;;;;5.78;3.40;;;;;;;;;;5052938;28;20160;-74
2021/01/09 10:19:09;;;;;;;5.95;3.47;;;;;;;;;;5049619;28;20275;-77
2021/01/09 10:21:36;;;;;;;5.90;3.20;;;3.80;1.00;;;;;;5034130;28;20157;-77
2021/01/09 10:24:02;;;;;;;4.00;2.85;;;3.90;1.00;;;;;;5050168;28;20261;-77
2021/01/09 10:26:30;;;;;;;3.93;2.53;;;3.90;1.00;;;;;;5053004;28;20226;-77
2021/01/09 10:28:56;;;;;;;6.38;2.70;;;;;;;;;;5050612;28;20504;-78
2021/01/09 10:31:36;;;;;;;4.72;2.65;;;4.00;1.00;;;;;;5043294;28;20259;-77
2021/01/09 10:34:03;;;;;;;5.00;2.70;;;4.10;1.00;;;;;;5033146;28;20164;-77
2021/01/09 10:36:31;;;;;;;4.03;2.95;;;4.30;1.00;;;;;;5031510;28;20183;-77
2021/01/09 10:38:58;;;;;;;4.97;2.67;;;4.30;1.00;;;;;;5044017;28;20222;-79
2021/01/09 10:41:24;;;;;;;3.22;2.58;;;4.40;1.00;;;;;;5033338;28;20169;-77
2021/01/09 10:43:51;;;;;;;3.53;2.78;;;4.60;1.00;;;;;;5047045;28;20242;-77
2021/01/09 10:46:22;;;;;;;5.15;3.40;;;4.70;1.00;;;;;;5036717;28;20548;-77
2021/01/09 10:48:48;;;;;;;8.50;3.03;;;4.90;1.00;;;;;;5047462;28;20183;-77
2021/01/09 10:51:15;;;;;;;2.80;2.28;;;5.00;1.00;;;;;;5039515;28;20218;-83
2021/01/09 10:53:41;;;;;;;3.97;2.60;;;;;;;;;;5036936;28;20291;-84
2021/01/09 10:56:07;;;;;;;2.13;1.87;;;;;;;;;;5033882;28;20585;-78
2021/01/09 10:58:33;;;;;;;5.10;2.63;;;;;;;;;;5049593;28;20972;-77
2021/01/09 11:00:59;;;;;;;4.20;2.13;;;5.00;1.00;;;;;;5047225;28;20438;-77
2021/01/09 11:03:25;;;;;;;3.77;2.10;;;;;;;;;;5038347;28;20422;-78
2021/01/09 11:05:51;;;;;;;2.30;2.10;;;;;;;;;;5034388;28;20180;-77
2021/01/09 11:08:17;;;;;;;2.40;1.70;;;;;;;;;;5052318;28;20514;-77
2021/01/09 11:10:42;;;;;;;4.40;2.10;;;4.50;1.00;;;;;;5052734;28;20874;-77
2021/01/09 11:13:08;;;;;;;1.53;1.43;;;;;;;;;;5041206;28;20427;-77
2021/01/09 11:15:53;;;;;;;1.97;1.77;;;4.50;1.00;;;;;;5045878;28;20183;-77
2021/01/09 11:18:19;;;;;;;3.10;1.63;;;4.40;1.00;;;;;;5049003;28;20453;-77
2021/01/09 11:20:48;;;;;;;1.77;1.63;;;4.30;1.00;;;;;;5048233;28;20168;-74
2021/01/09 11:23:14;;;;;;;1.60;1.50;;;4.50;1.00;;;;;;5033565;28;20164;-74
2021/01/09 11:25:47;;;;;;;2.50;1.65;;;4.50;1.00;;;;;;5038896;28;20172;-74
2021/01/09 11:28:14;;;;;;;2.00;1.85;;;4.40;1.00;;;;;;5056201;28;20172;-74
2021/01/09 11:30:41;;;;;;;2.35;1.85;;;4.30;1.00;;;;;;5041000;28;20643;-74
2021/01/09 11:33:07;;;;;;;1.77;1.67;;;4.20;1.00;;;;;;5039399;28;20186;-74
2021/01/09 11:35:33;;;;;;;3.60;2.17;;;4.20;1.00;;;;;;5036358;28;20591;-74
2021/01/09 11:38:00;;;;;;;2.10;1.60;;;4.10;1.00;;;;;;5035810;28;20608;-74
2021/01/09 11:40:26;;;;;;;3.72;1.73;;;4.30;1.00;;;;;;5041119;28;20218;-75
2021/01/09 11:42:52;;;;;;;4.28;2.35;;;;;;;;;;5054296;28;20587;-74
2021/01/09 11:45:19;;;;;;;2.22;1.85;;;;;;;;;;5037717;28;20180;-75
2021/01/09 11:47:45;;;;;;;1.63;1.52;;;4.40;1.00;;;;;;5051420;28;20171;-75
2021/01/09 11:50:15;;;;;;;2.20;2.00;;;4.50;1.00;;;;;;5056200;28;20171;-79
2021/01/09 11:52:41;;;;;;;1.58;1.48;;;4.60;1.00;;;;;;5044408;28;20180;-78
2021/01/09 11:55:08;;;;;;;3.97;2.35;;;4.50;1.00;;;;;;5035682;28;20204;-79
2021/01/09 11:57:33;;;;;;;3.25;2.45;;;4.40;1.00;;;;;;5035560;28;20196;-79
2021/01/09 12:00:00;;;;;;;3.90;2.27;;;;;;;;;;5036016;28;20257;-78
2021/01/09 12:03:08;;;;;;;3.35;2.40;;;4.30;1.00;;;;;;5044548;28;20172;-79
2021/01/09 12:05:34;;;;;;;5.20;2.83;;;4.20;1.00;;;;;;5045690;28;20227;-73
2021/01/09 12:08:09;;;;;;;10.80;2.23;;;4.20;1.00;;;;;;5036378;28;20181;-73
2021/01/09 12:10:35;;;;;;;4.38;2.67;;;4.20;1.00;;;;;;5036106;28;20175;-73
2021/01/09 12:13:09;;;;;;;4.63;2.63;;;4.40;1.00;;;;;;5045403;28;20168;-73
2021/01/09 12:15:39;;;;;;;3.47;2.40;;;4.40;1.00;;;;;;5052460;28;20167;-77
2021/01/09 12:18:09;;;;;;;3.42;2.05;;;4.30;1.00;;;;;;5056241;28;20239;-73
2021/01/09 12:21:08;;;;;;;3.40;2.38;;;4.40;1.00;;;;;;5056463;28;20168;-79
2021/01/09 12:23:57;;;;;;;5.18;3.20;;;4.40;1.00;;;;;;5050909;28;20497;-78
2021/01/09 12:33:56;;;;;;;4.55;2.30;;;4.30;1.00;;;;;;5035819;28;20234;-79
2021/01/09 12:36:22;;;;;;;4.20;3.20;;;4.10;1.00;;;;;;5035928;28;20168;-74
2021/01/09 12:38:51;;;;;;;5.83;2.93;;;4.10;1.00;;;;;;5036082;28;20204;-74
2021/01/09 12:41:31;;;;;;;5.95;3.45;;;4.30;1.00;;;;;;5035764;28;20184;-74
2021/01/09 12:43:57;;;;;;;5.78;2.80;;;4.20;1.00;;;;;;5035470;28;20511;-74
2021/01/09 12:46:22;;;;;;;2.90;2.50;;;4.30;1.00;;;;;;5043553;28;20179;-73
2021/01/09 12:48:48;;;;;;;6.50;2.83;;;4.30;1.00;;;;;;5041031;28;20763;-73
2021/01/09 12:51:14;;;;;;;4.97;2.93;;;;;;;;;;5036157;28;20699;-72
2021/01/09 12:53:45;;;;;;;3.65;2.47;;;4.20;1.00;;;;;;5054602;28;20219;-72
2021/01/09 12:56:10;;;;;;;4.18;2.67;;;4.10;1.00;;;;;;5055198;28;20643;-72
2021/01/09 12:58:36;;;;;;;3.40;2.73;;;4.20;1.00;;;;;;5049563;28;20203;-73
2021/01/09 13:01:03;;;;;;;7.80;3.20;;;4.20;1.00;;;;;;5040951;28;20245;-73
2021/01/09 13:03:28;;;;;;;10.25;3.85;;;4.30;1.00;;;;;;5050376;28;20176;-73
2021/01/09 13:05:56;;;;;;;7.63;3.00;;;4.20;1.00;;;;;;5036654;28;20226;-73
2021/01/09 13:08:27;;;;;;;8.30;3.22;;;4.20;1.00;;;;;;5040018;28;20500;-73
2021/01/09 13:10:52;;;;;;;4.40;2.90;;;4.20;1.00;;;;;;5054388;28;20630;-72
2021/01/09 13:13:18;;;;;;;3.60;2.70;;;;;;;;;;5053742;28;20167;-72
2021/01/09 13:15:44;;;;;;;4.82;3.20;;;;;;;;;;5039955;28;20167;-73
2021/01/09 13:18:15;;;;;;;5.85;3.25;;;4.30;1.00;;;;;;5054944;28;20195;-73
2021/01/09 13:21:03;;;;;;;10.60;3.42;;;4.30;1.00;;;;;;5055506;28;20222;-80
2021/01/09 13:24:20;;;;;;;5.82;3.28;;;4.40;1.00;;;;;;5051184;28;20168;-81
2021/01/09 13:27:14;;;;;;;4.47;2.33;;;4.20;1.00;;;;;;5045103;28;20233;-80
2021/01/09 13:30:32;;;;;;;4.20;2.85;;;4.20;1.00;;;;;;5048638;28;20169;-79
2021/01/09 13:33:44;;;;;;;4.00;2.53;;;4.20;1.00;;;;;;5040385;28;20618;-80
2021/01/09 13:39:50;;;;;;;5.50;2.72;;;4.40;1.00;;;;;;5035367;28;20235;-79
2021/01/09 13:43:08;;;;;;;4.50;2.58;;;4.30;1.00;;;;;;5051355;28;20176;-81
2021/01/09 13:45:52;;;;;;;8.20;2.83;;;4.30;1.00;;;;;;5041638;28;20305;-81
2021/01/09 13:48:22;;;;;;;3.38;2.53;;;4.10;1.00;;;;;;5038148;28;20192;-80
2021/01/09 13:51:24;;;;;;;4.05;2.95;;;4.10;1.00;;;;;;5036488;28;20238;-81
2021/01/09 13:54:26;;;;;;;3.80;2.20;;;4.00;1.00;;;;;;5046007;28;20571;-81
2021/01/09 14:00:27;;;;;;;5.55;2.60;;;4.00;1.00;;;;;;5043975;28;20223;-80
2021/01/09 14:03:03;;;;;;;6.05;2.83;;;3.90;1.00;;;;;;5050353;28;20179;-80
2021/01/09 14:12:15;;;;;;;4.35;2.33;;;4.10;1.00;;;;;;5034520;28;20270;-80
2021/01/09 14:15:14;;;;;;;1.95;1.85;;;4.00;1.00;;;;;;5048597;28;20577;-80
2021/01/09 14:18:02;;;;;;;4.93;2.88;;;4.10;1.00;;;;;;5042096;28;20255;-81
2021/01/09 14:20:36;;;;;;;6.15;2.35;;;4.30;1.00;;;;;;5039913;28;20682;-80
2021/01/09 14:23:03;;;;;;;2.97;2.45;;;4.40;1.00;;;;;;5045166;28;20655;-74
2021/01/09 14:25:50;;;;;;;3.67;2.85;;;4.50;1.00;;;;;;5046162;28;20183;-74
2021/01/09 14:28:16;;;;;;;5.25;2.58;;;4.40;1.00;;;;;;5040501;28;20180;-74
2021/01/09 14:30:46;;;;;;;5.13;3.07;;;4.40;1.00;;;;;;5048697;28;20195;-75
2021/01/09 14:36:45;;;;;;;2.80;2.00;;;4.30;1.00;;;;;;5034623;28;20271;-83
2021/01/09 14:39:15;;;;;;;4.63;3.13;;;4.20;1.00;;;;;;5039806;28;20199;-82
2021/01/09 14:41:57;;;;;;;5.63;3.30;;;4.10;1.00;;;;;;5033983;28;20619;-79
2021/01/09 14:51:09;;;;;;;2.30;2.03;;;3.70;1.00;;;;;;5039177;28;20609;-75